sensor_id;sensor_type;location;lat;lon;timestamp;temperature;humidity
25963;DHT22;13760;52.588;13.406;2022-11-15T00:00:28;5.60;99.90
25963;DHT22;13760;52.588;13.406;2022-11-15T00:02:53;5.60;99.90
25963;DHT22;13760;52.588;13.406;2022-11-15T00:05:19;5.50;99.90
25963;DHT22;13760;52.588;13.406;2022-11-15T00:07:45;5.50;99.90
25963;DHT22;13760;52.588;13.406;2022-11-15T00:10:11;5.50;99.90
25963;DHT22;13760;52.588;13.406;2022-11-15T00:12:37;5.50;99.90
25963;DHT22;13760;52.588;13.406;2022-11-15T00:15:03;5.50;99.90
25963;DHT22;13760;52.588;13.406;2022-11-15T00:17:29;5.50;99.90
25963;DHT22;13760;52.588;13.406;2022-11-15T00:19:55;5.50;99.90
25963;DHT22;13760;52.588;13.406;2022-11-15T00:22:20;5.40;99.90
25963;DHT22;13760;52.588;13.406;2022-11-15T00:24:46;5.40;99.90
25963;DHT22;13760;52.588;13.406;2022-11-15T00:27:11;5.40;99.90
25963;DHT22;13760;52.588;13.406;2022-11-15T00:29:37;5.40;99.90
25963;DHT22;13760;52.588;13.406;2022-11-15T00:32:04;5.30;99.90
25963;DHT22;13760;52.588;13.406;2022-11-15T00:34:30;5.30;99.90
25963;DHT22;13760;52.588;13.406;2022-11-15T00:36:55;5.30;99.90
25963;DHT22;13760;52.588;13.406;2022-11-15T00:39:21;5.30;99.90
25963;DHT22;13760;52.588;13.406;2022-11-15T00:41:46;5.30;99.90
25963;DHT22;13760;52.588;13.406;2022-11-15T00:44:12;5.30;99.90
25963;DHT22;13760;52.588;13.406;2022-11-15T00:46:37;5.30;99.90
25963;DHT22;13760;52.588;13.406;2022-11-15T00:49:03;5.30;99.90
25963;DHT22;13760;52.588;13.406;2022-11-15T00:51:28;5.30;99.90
25963;DHT22;13760;52.588;13.406;2022-11-15T00:53:54;5.20;99.90
25963;DHT22;13760;52.588;13.406;2022-11-15T00:56:19;5.30;99.90
25963;DHT22;13760;52.588;13.406;2022-11-15T00:58:45;5.20;99.90
25963;DHT22;13760;52.588;13.406;2022-11-15T01:01:13;5.30;99.90
25963;DHT22;13760;52.588;13.406;2022-11-15T01:03:40;5.30;99.90
25963;DHT22;13760;52.588;13.406;2022-11-15T01:06:06;5.20;99.90
25963;DHT22;13760;52.588;13.406;2022-11-15T01:08:32;5.20;99.90
25963;DHT22;13760;52.588;13.406;2022-11-15T01:11:03;5.20;99.90
25963;DHT22;13760;52.588;13.406;2022-11-15T01:13:32;5.20;99.90
25963;DHT22;13760;52.588;13.406;2022-11-15T01:15:58;5.20;99.90
25963;DHT22;13760;52.588;13.406;2022-11-15T01:18:24;5.20;99.90
25963;DHT22;13760;52.588;13.406;2022-11-15T01:20:50;5.10;99.90
25963;DHT22;13760;52.588;13.406;2022-11-15T01:23:16;5.10;99.90
25963;DHT22;13760;52.588;13.406;2022-11-15T01:25:41;5.10;99.90
25963;DHT22;13760;52.588;13.406;2022-11-15T01:28:07;5.10;99.90
25963;DHT22;13760;52.588;13.406;2022-11-15T01:30:32;5.10;99.90
25963;DHT22;13760;52.588;13.406;2022-11-15T01:32:58;5.20;99.90
25963;DHT22;13760;52.588;13.406;2022-11-15T01:35:23;5.20;99.90
25963;DHT22;13760;52.588;13.406;2022-11-15T01:37:49;5.10;99.90
25963;DHT22;13760;52.588;13.406;2022-11-15T01:40:14;5.10;99.90
25963;DHT22;13760;52.588;13.406;2022-11-15T01:42:40;5.10;99.90
25963;DHT22;13760;52.588;13.406;2022-11-15T01:45:07;5.10;99.90
25963;DHT22;13760;52.588;13.406;2022-11-15T01:47:40;5.10;99.90
25963;DHT22;13760;52.588;13.406;2022-11-15T01:50:15;5.00;99.90
25963;DHT22;13760;52.588;13.406;2022-11-15T01:52:41;5.00;99.90
25963;DHT22;13760;52.588;13.406;2022-11-15T01:55:09;5.00;99.90
25963;DHT22;13760;52.588;13.406;2022-11-15T01:57:37;5.00;99.90
25963;DHT22;13760;52.588;13.406;2022-11-15T02:00:05;5.00;99.90
25963;DHT22;13760;52.588;13.406;2022-11-15T02:02:32;5.00;99.90
25963;DHT22;13760;52.588;13.406;2022-11-15T02:04:58;5.00;99.90
25963;DHT22;13760;52.588;13.406;2022-11-15T02:07:24;5.00;99.90
25963;DHT22;13760;52.588;13.406;2022-11-15T02:09:50;5.00;99.90
25963;DHT22;13760;52.588;13.406;2022-11-15T02:12:19;5.00;99.90
25963;DHT22;13760;52.588;13.406;2022-11-15T02:14:49;5.00;99.90
25963;DHT22;13760;52.588;13.406;2022-11-15T02:29:19;4.90;99.90
25963;DHT22;13760;52.588;13.406;2022-11-15T02:31:53;4.90;99.90
25963;DHT22;13760;52.588;13.406;2022-11-15T02:37:16;4.80;99.90
25963;DHT22;13760;52.588;13.406;2022-11-15T02:40:11;4.70;99.90
25963;DHT22;13760;52.588;13.406;2022-11-15T02:43:00;4.70;99.90
25963;DHT22;13760;52.588;13.406;2022-11-15T02:45:51;4.70;99.90
25963;DHT22;13760;52.588;13.406;2022-11-15T02:48:21;4.70;99.90
25963;DHT22;13760;52.588;13.406;2022-11-15T02:50:48;4.60;99.90
25963;DHT22;13760;52.588;13.406;2022-11-15T02:53:14;4.60;99.90
25963;DHT22;13760;52.588;13.406;2022-11-15T02:55:50;4.70;99.90
25963;DHT22;13760;52.588;13.406;2022-11-15T03:00:59;4.60;99.90
25963;DHT22;13760;52.588;13.406;2022-11-15T03:06:20;4.60;99.90
25963;DHT22;13760;52.588;13.406;2022-11-15T03:09:23;4.60;99.90
25963;DHT22;13760;52.588;13.406;2022-11-15T03:12:01;4.50;99.90
25963;DHT22;13760;52.588;13.406;2022-11-15T03:14:38;4.50;99.90
25963;DHT22;13760;52.588;13.406;2022-11-15T03:19:54;4.50;99.90
25963;DHT22;13760;52.588;13.406;2022-11-15T03:22:23;4.50;99.90
25963;DHT22;13760;52.588;13.406;2022-11-15T03:24:57;4.50;99.90
25963;DHT22;13760;52.588;13.406;2022-11-15T03:27:27;4.40;99.90
25963;DHT22;13760;52.588;13.406;2022-11-15T03:30:02;4.40;99.90
25963;DHT22;13760;52.588;13.406;2022-11-15T03:32:35;4.40;99.90
25963;DHT22;13760;52.588;13.406;2022-11-15T03:35:06;4.40;99.90
25963;DHT22;13760;52.588;13.406;2022-11-15T03:40:17;4.30;99.90
25963;DHT22;13760;52.588;13.406;2022-11-15T03:43:33;4.30;99.90
25963;DHT22;13760;52.588;13.406;2022-11-15T03:45:38;4.30;99.90
25963;DHT22;13760;52.588;13.406;2022-11-15T03:48:21;4.30;99.90
25963;DHT22;13760;52.588;13.406;2022-11-15T03:50:49;4.20;99.90
25963;DHT22;13760;52.588;13.406;2022-11-15T03:53:15;4.20;99.90
25963;DHT22;13760;52.588;13.406;2022-11-15T03:55:41;4.20;99.90
25963;DHT22;13760;52.588;13.406;2022-11-15T03:58:06;4.20;99.90
25963;DHT22;13760;52.588;13.406;2022-11-15T04:00:32;4.20;99.90
25963;DHT22;13760;52.588;13.406;2022-11-15T04:02:58;4.20;99.90
25963;DHT22;13760;52.588;13.406;2022-11-15T04:05:24;4.20;99.90
25963;DHT22;13760;52.588;13.406;2022-11-15T04:07:49;4.20;99.90
25963;DHT22;13760;52.588;13.406;2022-11-15T04:10:15;4.20;99.90
25963;DHT22;13760;52.588;13.406;2022-11-15T04:12:43;4.10;99.90
25963;DHT22;13760;52.588;13.406;2022-11-15T04:15:14;4.10;99.90
25963;DHT22;13760;52.588;13.406;2022-11-15T04:17:50;4.20;99.90
25963;DHT22;13760;52.588;13.406;2022-11-15T04:20:25;4.20;99.90
25963;DHT22;13760;52.588;13.406;2022-11-15T04:23:12;4.20;99.90
25963;DHT22;13760;52.588;13.406;2022-11-15T04:25:59;4.20;99.90
25963;DHT22;13760;52.588;13.406;2022-11-15T04:28:25;4.20;99.90
25963;DHT22;13760;52.588;13.406;2022-11-15T04:30:50;4.20;99.90
25963;DHT22;13760;52.588;13.406;2022-11-15T04:33:16;4.20;99.90
25963;DHT22;13760;52.588;13.406;2022-11-15T04:35:42;4.10;99.90
25963;DHT22;13760;52.588;13.406;2022-11-15T04:38:09;4.10;99.90
25963;DHT22;13760;52.588;13.406;2022-11-15T04:40:36;4.10;99.90
25963;DHT22;13760;52.588;13.406;2022-11-15T04:43:02;4.00;99.90
25963;DHT22;13760;52.588;13.406;2022-11-15T04:45:28;4.00;99.90
25963;DHT22;13760;52.588;13.406;2022-11-15T04:47:54;4.00;99.90
25963;DHT22;13760;52.588;13.406;2022-11-15T04:50:19;4.00;99.90
25963;DHT22;13760;52.588;13.406;2022-11-15T04:52:51;4.00;99.90
25963;DHT22;13760;52.588;13.406;2022-11-15T04:55:17;4.00;99.90
25963;DHT22;13760;52.588;13.406;2022-11-15T04:57:44;4.00;99.90
25963;DHT22;13760;52.588;13.406;2022-11-15T05:00:13;4.00;99.90
25963;DHT22;13760;52.588;13.406;2022-11-15T05:02:39;4.00;99.90
25963;DHT22;13760;52.588;13.406;2022-11-15T05:05:24;4.00;99.90
25963;DHT22;13760;52.588;13.406;2022-11-15T05:07:49;4.00;99.90
25963;DHT22;13760;52.588;13.406;2022-11-15T05:10:15;4.00;99.90
25963;DHT22;13760;52.588;13.406;2022-11-15T05:12:41;4.00;99.90
25963;DHT22;13760;52.588;13.406;2022-11-15T05:15:06;3.90;99.90
25963;DHT22;13760;52.588;13.406;2022-11-15T05:17:32;4.00;99.90
25963;DHT22;13760;52.588;13.406;2022-11-15T05:19:58;3.90;99.90
25963;DHT22;13760;52.588;13.406;2022-11-15T05:22:23;3.90;99.90
25963;DHT22;13760;52.588;13.406;2022-11-15T05:24:49;3.90;99.90
25963;DHT22;13760;52.588;13.406;2022-11-15T05:27:14;3.90;99.90
25963;DHT22;13760;52.588;13.406;2022-11-15T05:29:40;3.90;99.90
25963;DHT22;13760;52.588;13.406;2022-11-15T05:32:06;3.80;99.90
25963;DHT22;13760;52.588;13.406;2022-11-15T05:34:33;3.80;99.90
25963;DHT22;13760;52.588;13.406;2022-11-15T05:37:00;3.80;99.90
25963;DHT22;13760;52.588;13.406;2022-11-15T05:39:25;3.80;99.90
25963;DHT22;13760;52.588;13.406;2022-11-15T05:42:00;3.80;99.90
25963;DHT22;13760;52.588;13.406;2022-11-15T05:44:28;3.80;99.90
25963;DHT22;13760;52.588;13.406;2022-11-15T05:46:55;3.80;99.90
25963;DHT22;13760;52.588;13.406;2022-11-15T05:49:25;3.80;99.90
25963;DHT22;13760;52.588;13.406;2022-11-15T05:51:51;3.90;99.90
25963;DHT22;13760;52.588;13.406;2022-11-15T05:54:20;3.80;99.90
25963;DHT22;13760;52.588;13.406;2022-11-15T05:56:46;3.80;99.90
25963;DHT22;13760;52.588;13.406;2022-11-15T05:59:12;3.80;99.90
25963;DHT22;13760;52.588;13.406;2022-11-15T06:01:38;3.80;99.90
25963;DHT22;13760;52.588;13.406;2022-11-15T06:04:04;3.80;99.90
25963;DHT22;13760;52.588;13.406;2022-11-15T06:06:30;3.80;99.90
25963;DHT22;13760;52.588;13.406;2022-11-15T06:08:55;3.70;99.90
25963;DHT22;13760;52.588;13.406;2022-11-15T06:11:21;3.70;99.90
25963;DHT22;13760;52.588;13.406;2022-11-15T06:13:46;3.70;99.90
25963;DHT22;13760;52.588;13.406;2022-11-15T06:16:12;3.70;99.90
25963;DHT22;13760;52.588;13.406;2022-11-15T06:18:38;3.80;99.90
25963;DHT22;13760;52.588;13.406;2022-11-15T06:21:04;3.80;99.90
25963;DHT22;13760;52.588;13.406;2022-11-15T06:23:37;3.70;99.90
25963;DHT22;13760;52.588;13.406;2022-11-15T06:26:03;3.80;99.90
25963;DHT22;13760;52.588;13.406;2022-11-15T06:28:31;3.80;99.90
25963;DHT22;13760;52.588;13.406;2022-11-15T06:31:07;3.80;99.90
25963;DHT22;13760;52.588;13.406;2022-11-15T06:33:33;3.80;99.90
25963;DHT22;13760;52.588;13.406;2022-11-15T06:36:06;3.80;99.90
25963;DHT22;13760;52.588;13.406;2022-11-15T06:38:32;3.80;99.90
25963;DHT22;13760;52.588;13.406;2022-11-15T06:41:06;3.90;99.90
25963;DHT22;13760;52.588;13.406;2022-11-15T06:43:33;3.90;99.90
25963;DHT22;13760;52.588;13.406;2022-11-15T06:46:07;3.90;99.90
25963;DHT22;13760;52.588;13.406;2022-11-15T06:48:34;3.90;99.90
25963;DHT22;13760;52.588;13.406;2022-11-15T06:51:01;3.90;99.90
25963;DHT22;13760;52.588;13.406;2022-11-15T06:53:28;4.00;99.90
25963;DHT22;13760;52.588;13.406;2022-11-15T06:56:04;4.00;99.90
25963;DHT22;13760;52.588;13.406;2022-11-15T06:58:30;4.00;99.90
25963;DHT22;13760;52.588;13.406;2022-11-15T07:01:07;4.00;99.90
25963;DHT22;13760;52.588;13.406;2022-11-15T07:03:38;4.10;99.90
25963;DHT22;13760;52.588;13.406;2022-11-15T07:06:04;4.10;99.90
25963;DHT22;13760;52.588;13.406;2022-11-15T07:08:30;4.10;99.90
25963;DHT22;13760;52.588;13.406;2022-11-15T07:11:00;4.20;99.90
25963;DHT22;13760;52.588;13.406;2022-11-15T07:13:27;4.20;99.90
25963;DHT22;13760;52.588;13.406;2022-11-15T07:15:53;4.20;99.90
25963;DHT22;13760;52.588;13.406;2022-11-15T07:18:18;4.20;99.90
25963;DHT22;13760;52.588;13.406;2022-11-15T07:20:44;4.20;99.90
25963;DHT22;13760;52.588;13.406;2022-11-15T07:23:10;4.20;99.90
25963;DHT22;13760;52.588;13.406;2022-11-15T07:25:35;4.20;99.90
25963;DHT22;13760;52.588;13.406;2022-11-15T07:28:02;4.30;99.90
25963;DHT22;13760;52.588;13.406;2022-11-15T07:30:30;4.30;99.90
25963;DHT22;13760;52.588;13.406;2022-11-15T07:33:00;4.30;99.90
25963;DHT22;13760;52.588;13.406;2022-11-15T07:35:28;4.30;99.90
25963;DHT22;13760;52.588;13.406;2022-11-15T07:37:58;4.30;99.90
25963;DHT22;13760;52.588;13.406;2022-11-15T07:40:25;4.40;99.90
25963;DHT22;13760;52.588;13.406;2022-11-15T07:42:51;4.40;99.90
25963;DHT22;13760;52.588;13.406;2022-11-15T07:45:23;4.40;99.90
25963;DHT22;13760;52.588;13.406;2022-11-15T07:47:51;4.50;99.90
25963;DHT22;13760;52.588;13.406;2022-11-15T07:50:17;4.60;99.90
25963;DHT22;13760;52.588;13.406;2022-11-15T07:52:43;4.60;99.90
25963;DHT22;13760;52.588;13.406;2022-11-15T07:55:09;4.70;99.90
25963;DHT22;13760;52.588;13.406;2022-11-15T07:57:37;4.70;99.90
25963;DHT22;13760;52.588;13.406;2022-11-15T08:00:06;4.80;99.90
25963;DHT22;13760;52.588;13.406;2022-11-15T08:02:32;4.80;99.90
25963;DHT22;13760;52.588;13.406;2022-11-15T08:04:58;4.90;99.90
25963;DHT22;13760;52.588;13.406;2022-11-15T08:07:24;4.90;99.90
25963;DHT22;13760;52.588;13.406;2022-11-15T08:09:49;4.90;99.90
25963;DHT22;13760;52.588;13.406;2022-11-15T08:12:15;5.00;99.90
25963;DHT22;13760;52.588;13.406;2022-11-15T08:14:40;5.10;99.90
25963;DHT22;13760;52.588;13.406;2022-11-15T08:17:06;5.20;99.90
25963;DHT22;13760;52.588;13.406;2022-11-15T08:19:31;5.20;99.90
25963;DHT22;13760;52.588;13.406;2022-11-15T08:21:57;5.30;99.90
25963;DHT22;13760;52.588;13.406;2022-11-15T08:24:23;5.30;99.90
25963;DHT22;13760;52.588;13.406;2022-11-15T08:26:48;5.40;99.90
25963;DHT22;13760;52.588;13.406;2022-11-15T08:29:14;5.50;99.90
25963;DHT22;13760;52.588;13.406;2022-11-15T08:31:39;5.50;99.90
25963;DHT22;13760;52.588;13.406;2022-11-15T08:34:05;5.60;99.90
25963;DHT22;13760;52.588;13.406;2022-11-15T08:36:31;5.70;99.90
25963;DHT22;13760;52.588;13.406;2022-11-15T08:38:57;5.70;99.90
25963;DHT22;13760;52.588;13.406;2022-11-15T08:41:30;5.80;99.90
25963;DHT22;13760;52.588;13.406;2022-11-15T08:43:56;5.90;99.90
25963;DHT22;13760;52.588;13.406;2022-11-15T08:46:22;6.00;99.90
25963;DHT22;13760;52.588;13.406;2022-11-15T08:48:47;6.10;99.90
25963;DHT22;13760;52.588;13.406;2022-11-15T08:51:13;6.20;99.90
25963;DHT22;13760;52.588;13.406;2022-11-15T08:53:38;6.40;99.90
25963;DHT22;13760;52.588;13.406;2022-11-15T08:56:07;6.50;99.90
25963;DHT22;13760;52.588;13.406;2022-11-15T08:58:34;6.60;99.90
25963;DHT22;13760;52.588;13.406;2022-11-15T09:01:00;6.70;99.90
25963;DHT22;13760;52.588;13.406;2022-11-15T09:03:25;6.80;99.90
25963;DHT22;13760;52.588;13.406;2022-11-15T09:05:59;6.90;99.90
25963;DHT22;13760;52.588;13.406;2022-11-15T09:08:25;7.10;99.90
25963;DHT22;13760;52.588;13.406;2022-11-15T09:10:54;7.20;99.90
25963;DHT22;13760;52.588;13.406;2022-11-15T09:13:19;7.20;99.90
25963;DHT22;13760;52.588;13.406;2022-11-15T09:15:45;7.30;99.90
25963;DHT22;13760;52.588;13.406;2022-11-15T09:18:10;7.40;99.90
25963;DHT22;13760;52.588;13.406;2022-11-15T09:20:36;7.50;99.90
25963;DHT22;13760;52.588;13.406;2022-11-15T09:23:02;7.60;99.90
25963;DHT22;13760;52.588;13.406;2022-11-15T09:25:29;7.70;99.90
25963;DHT22;13760;52.588;13.406;2022-11-15T09:27:54;7.80;99.90
25963;DHT22;13760;52.588;13.406;2022-11-15T09:30:20;7.80;99.90
25963;DHT22;13760;52.588;13.406;2022-11-15T09:32:45;7.90;99.90
25963;DHT22;13760;52.588;13.406;2022-11-15T09:35:11;8.00;99.90
25963;DHT22;13760;52.588;13.406;2022-11-15T09:37:36;8.00;99.90
25963;DHT22;13760;52.588;13.406;2022-11-15T09:40:03;8.10;99.90
25963;DHT22;13760;52.588;13.406;2022-11-15T09:43:01;8.20;99.90
25963;DHT22;13760;52.588;13.406;2022-11-15T09:50:34;8.40;99.90
25963;DHT22;13760;52.588;13.406;2022-11-15T09:53:01;8.40;99.90
25963;DHT22;13760;52.588;13.406;2022-11-15T09:55:39;8.50;99.90
25963;DHT22;13760;52.588;13.406;2022-11-15T10:01:00;8.60;99.90
25963;DHT22;13760;52.588;13.406;2022-11-15T10:03:33;8.70;99.90
25963;DHT22;13760;52.588;13.406;2022-11-15T10:06:02;8.80;99.90
25963;DHT22;13760;52.588;13.406;2022-11-15T10:11:23;8.90;99.90
25963;DHT22;13760;52.588;13.406;2022-11-15T10:13:50;9.00;99.90
25963;DHT22;13760;52.588;13.406;2022-11-15T10:19:28;9.10;99.90
25963;DHT22;13760;52.588;13.406;2022-11-15T10:22:20;9.20;99.90
25963;DHT22;13760;52.588;13.406;2022-11-15T10:24:45;9.20;99.90
25963;DHT22;13760;52.588;13.406;2022-11-15T10:27:15;9.30;99.90
25963;DHT22;13760;52.588;13.406;2022-11-15T10:29:47;9.40;99.90
25963;DHT22;13760;52.588;13.406;2022-11-15T10:32:15;9.50;99.90
25963;DHT22;13760;52.588;13.406;2022-11-15T10:34:40;9.50;99.90
25963;DHT22;13760;52.588;13.406;2022-11-15T10:37:06;9.60;99.90
25963;DHT22;13760;52.588;13.406;2022-11-15T10:39:32;9.70;99.90
25963;DHT22;13760;52.588;13.406;2022-11-15T10:42:22;9.80;99.90
25963;DHT22;13760;52.588;13.406;2022-11-15T10:44:50;9.80;99.90
25963;DHT22;13760;52.588;13.406;2022-11-15T10:47:30;9.90;99.90
25963;DHT22;13760;52.588;13.406;2022-11-15T10:49:57;10.00;99.90
25963;DHT22;13760;52.588;13.406;2022-11-15T10:52:23;10.10;99.90
25963;DHT22;13760;52.588;13.406;2022-11-15T10:54:57;10.10;99.90
25963;DHT22;13760;52.588;13.406;2022-11-15T10:57:27;10.20;99.90
25963;DHT22;13760;52.588;13.406;2022-11-15T11:00:00;10.30;99.90
25963;DHT22;13760;52.588;13.406;2022-11-15T11:02:40;10.30;99.90
25963;DHT22;13760;52.588;13.406;2022-11-15T11:05:35;10.40;99.90
25963;DHT22;13760;52.588;13.406;2022-11-15T11:08:21;10.50;99.90
25963;DHT22;13760;52.588;13.406;2022-11-15T11:10:57;10.60;99.90
25963;DHT22;13760;52.588;13.406;2022-11-15T11:13:32;10.70;99.90
25963;DHT22;13760;52.588;13.406;2022-11-15T11:16:21;10.70;99.90
25963;DHT22;13760;52.588;13.406;2022-11-15T11:21:42;11.00;99.90
25963;DHT22;13760;52.588;13.406;2022-11-15T11:24:10;11.10;99.90
25963;DHT22;13760;52.588;13.406;2022-11-15T11:27:18;11.30;99.90
25963;DHT22;13760;52.588;13.406;2022-11-15T11:30:19;11.50;99.90
25963;DHT22;13760;52.588;13.406;2022-11-15T11:35:45;11.90;99.90
25963;DHT22;13760;52.588;13.406;2022-11-15T11:41:05;12.30;99.90
25963;DHT22;13760;52.588;13.406;2022-11-15T11:43:48;12.40;99.90
25963;DHT22;13760;52.588;13.406;2022-11-15T11:49:10;12.60;99.90
25963;DHT22;13760;52.588;13.406;2022-11-15T11:51:49;12.80;99.90
25963;DHT22;13760;52.588;13.406;2022-11-15T11:54:45;12.80;99.90
25963;DHT22;13760;52.588;13.406;2022-11-15T12:00:12;13.00;99.90
25963;DHT22;13760;52.588;13.406;2022-11-15T12:02:42;13.10;99.90
25963;DHT22;13760;52.588;13.406;2022-11-15T12:09:19;13.10;99.90
25963;DHT22;13760;52.588;13.406;2022-11-15T12:12:02;13.10;99.90
25963;DHT22;13760;52.588;13.406;2022-11-15T12:14:50;13.00;99.90
25963;DHT22;13760;52.588;13.406;2022-11-15T12:17:24;13.00;99.90
25963;DHT22;13760;52.588;13.406;2022-11-15T12:19:52;12.90;99.90
25963;DHT22;13760;52.588;13.406;2022-11-15T12:22:21;12.90;99.90
25963;DHT22;13760;52.588;13.406;2022-11-15T12:24:50;12.90;99.90
25963;DHT22;13760;52.588;13.406;2022-11-15T12:27:35;12.80;99.90
25963;DHT22;13760;52.588;13.406;2022-11-15T12:30:08;12.80;99.90
25963;DHT22;13760;52.588;13.406;2022-11-15T12:32:37;12.80;99.90
25963;DHT22;13760;52.588;13.406;2022-11-15T12:35:06;12.80;99.90
25963;DHT22;13760;52.588;13.406;2022-11-15T12:37:48;12.80;99.90
25963;DHT22;13760;52.588;13.406;2022-11-15T12:45:40;12.80;99.90
25963;DHT22;13760;52.588;13.406;2022-11-15T13:01:09;12.70;99.90
25963;DHT22;13760;52.588;13.406;2022-11-15T13:03:36;12.70;99.90
25963;DHT22;13760;52.588;13.406;2022-11-15T13:06:48;12.70;99.90
25963;DHT22;13760;52.588;13.406;2022-11-15T13:11:58;12.60;99.90
25963;DHT22;13760;52.588;13.406;2022-11-15T13:14:44;12.70;99.90
25963;DHT22;13760;52.588;13.406;2022-11-15T13:19:42;12.70;99.90
25963;DHT22;13760;52.588;13.406;2022-11-15T13:22:10;12.70;99.90
25963;DHT22;13760;52.588;13.406;2022-11-15T13:24:55;12.70;99.90
25963;DHT22;13760;52.588;13.406;2022-11-15T13:27:21;12.70;99.90
25963;DHT22;13760;52.588;13.406;2022-11-15T13:29:46;12.70;99.90
25963;DHT22;13760;52.588;13.406;2022-11-15T13:32:13;12.70;99.90
25963;DHT22;13760;52.588;13.406;2022-11-15T13:34:44;12.70;99.90
25963;DHT22;13760;52.588;13.406;2022-11-15T13:37:32;12.70;99.90
25963;DHT22;13760;52.588;13.406;2022-11-15T13:40:22;12.60;99.90
25963;DHT22;13760;52.588;13.406;2022-11-15T13:42:48;12.60;99.90
25963;DHT22;13760;52.588;13.406;2022-11-15T13:45:16;12.50;99.90
25963;DHT22;13760;52.588;13.406;2022-11-15T13:47:42;12.50;99.90
25963;DHT22;13760;52.588;13.406;2022-11-15T13:50:12;12.40;99.90
25963;DHT22;13760;52.588;13.406;2022-11-15T13:52:40;12.40;99.90
25963;DHT22;13760;52.588;13.406;2022-11-15T13:55:14;12.30;99.90
25963;DHT22;13760;52.588;13.406;2022-11-15T14:00:34;12.20;99.90
25963;DHT22;13760;52.588;13.406;2022-11-15T14:03:18;12.20;99.90
25963;DHT22;13760;52.588;13.406;2022-11-15T14:08:27;12.10;99.90
25963;DHT22;13760;52.588;13.406;2022-11-15T14:11:16;12.00;99.90
25963;DHT22;13760;52.588;13.406;2022-11-15T14:13:50;12.00;99.90
25963;DHT22;13760;52.588;13.406;2022-11-15T14:16:33;12.00;99.90
25963;DHT22;13760;52.588;13.406;2022-11-15T14:19:00;11.90;99.90
25963;DHT22;13760;52.588;13.406;2022-11-15T14:21:26;11.90;99.90
25963;DHT22;13760;52.588;13.406;2022-11-15T14:23:51;11.80;99.90
25963;DHT22;13760;52.588;13.406;2022-11-15T14:26:34;11.80;99.90
25963;DHT22;13760;52.588;13.406;2022-11-15T14:29:25;11.80;99.90
25963;DHT22;13760;52.588;13.406;2022-11-15T14:31:52;11.70;99.90
25963;DHT22;13760;52.588;13.406;2022-11-15T14:34:18;11.70;99.90
25963;DHT22;13760;52.588;13.406;2022-11-15T14:36:44;11.70;99.90
25963;DHT22;13760;52.588;13.406;2022-11-15T14:39:09;11.60;99.90
25963;DHT22;13760;52.588;13.406;2022-11-15T14:41:36;11.60;99.90
25963;DHT22;13760;52.588;13.406;2022-11-15T14:44:05;11.60;99.90
25963;DHT22;13760;52.588;13.406;2022-11-15T14:46:31;11.50;99.90
25963;DHT22;13760;52.588;13.406;2022-11-15T14:48:57;11.50;99.90
25963;DHT22;13760;52.588;13.406;2022-11-15T14:51:22;11.40;99.90
25963;DHT22;13760;52.588;13.406;2022-11-15T14:53:48;11.40;99.90
25963;DHT22;13760;52.588;13.406;2022-11-15T14:56:14;11.30;99.90
25963;DHT22;13760;52.588;13.406;2022-11-15T14:58:40;11.30;99.90
25963;DHT22;13760;52.588;13.406;2022-11-15T15:01:13;11.20;99.90
25963;DHT22;13760;52.588;13.406;2022-11-15T15:03:39;11.10;99.90
25963;DHT22;13760;52.588;13.406;2022-11-15T15:06:05;11.00;99.90
25963;DHT22;13760;52.588;13.406;2022-11-15T15:08:30;11.00;99.90
25963;DHT22;13760;52.588;13.406;2022-11-15T15:10:56;10.90;99.90
25963;DHT22;13760;52.588;13.406;2022-11-15T15:13:23;10.80;99.90
25963;DHT22;13760;52.588;13.406;2022-11-15T15:15:50;10.80;99.90
25963;DHT22;13760;52.588;13.406;2022-11-15T15:18:17;10.70;99.90
25963;DHT22;13760;52.588;13.406;2022-11-15T15:20:44;10.70;99.90
25963;DHT22;13760;52.588;13.406;2022-11-15T15:23:16;10.60;99.90
25963;DHT22;13760;52.588;13.406;2022-11-15T15:25:41;10.60;99.90
25963;DHT22;13760;52.588;13.406;2022-11-15T15:28:07;10.50;99.90
25963;DHT22;13760;52.588;13.406;2022-11-15T15:30:33;10.50;99.90
25963;DHT22;13760;52.588;13.406;2022-11-15T15:32:58;10.50;99.90
25963;DHT22;13760;52.588;13.406;2022-11-15T15:35:28;10.50;99.90
25963;DHT22;13760;52.588;13.406;2022-11-15T15:37:54;10.40;99.90
25963;DHT22;13760;52.588;13.406;2022-11-15T15:40:22;10.30;99.90
25963;DHT22;13760;52.588;13.406;2022-11-15T15:42:48;10.30;99.90
25963;DHT22;13760;52.588;13.406;2022-11-15T15:45:14;10.20;99.90
25963;DHT22;13760;52.588;13.406;2022-11-15T15:47:40;10.10;99.90
25963;DHT22;13760;52.588;13.406;2022-11-15T15:52:47;9.90;99.90
25963;DHT22;13760;52.588;13.406;2022-11-15T15:55:12;9.90;99.90
25963;DHT22;13760;52.588;13.406;2022-11-15T15:57:38;9.80;99.90
25963;DHT22;13760;52.588;13.406;2022-11-15T16:00:04;9.70;99.90
25963;DHT22;13760;52.588;13.406;2022-11-15T16:02:30;9.70;99.90
25963;DHT22;13760;52.588;13.406;2022-11-15T16:04:55;9.60;99.90
25963;DHT22;13760;52.588;13.406;2022-11-15T16:07:22;9.60;99.90
25963;DHT22;13760;52.588;13.406;2022-11-15T16:09:53;9.60;99.90
25963;DHT22;13760;52.588;13.406;2022-11-15T16:12:32;9.60;99.90
25963;DHT22;13760;52.588;13.406;2022-11-15T16:14:58;9.60;99.90
25963;DHT22;13760;52.588;13.406;2022-11-15T16:17:26;9.60;99.90
25963;DHT22;13760;52.588;13.406;2022-11-15T16:19:52;9.60;99.90
25963;DHT22;13760;52.588;13.406;2022-11-15T16:22:18;9.60;99.90
25963;DHT22;13760;52.588;13.406;2022-11-15T16:24:43;9.60;99.90
25963;DHT22;13760;52.588;13.406;2022-11-15T16:27:17;9.50;99.90
25963;DHT22;13760;52.588;13.406;2022-11-15T16:29:44;9.50;99.90
25963;DHT22;13760;52.588;13.406;2022-11-15T16:32:10;9.50;99.90
25963;DHT22;13760;52.588;13.406;2022-11-15T16:34:35;9.40;99.90
25963;DHT22;13760;52.588;13.406;2022-11-15T16:37:01;9.40;99.90
25963;DHT22;13760;52.588;13.406;2022-11-15T16:39:27;9.30;99.90
25963;DHT22;13760;52.588;13.406;2022-11-15T16:41:56;9.30;99.90
25963;DHT22;13760;52.588;13.406;2022-11-15T16:44:21;9.20;99.90
25963;DHT22;13760;52.588;13.406;2022-11-15T16:46:47;9.20;99.90
25963;DHT22;13760;52.588;13.406;2022-11-15T16:49:20;9.10;99.90
25963;DHT22;13760;52.588;13.406;2022-11-15T16:51:48;9.00;99.90
25963;DHT22;13760;52.588;13.406;2022-11-15T16:54:14;9.00;99.90
25963;DHT22;13760;52.588;13.406;2022-11-15T16:56:41;8.90;99.90
25963;DHT22;13760;52.588;13.406;2022-11-15T16:59:10;8.80;99.90
25963;DHT22;13760;52.588;13.406;2022-11-15T17:01:38;8.80;99.90
25963;DHT22;13760;52.588;13.406;2022-11-15T17:04:15;8.70;99.90
25963;DHT22;13760;52.588;13.406;2022-11-15T17:06:44;8.70;99.90
25963;DHT22;13760;52.588;13.406;2022-11-15T17:09:17;8.60;99.90
25963;DHT22;13760;52.588;13.406;2022-11-15T17:11:44;8.60;99.90